Main page
METAR-TAF:

METAR-TAF

Airports :

Svalbard Airport. Longyear

Longyearbyen, Norway

latitude: 78-15N, longitude: 015-28E, elevation: 2 m

Current weather observation

The report was made 23 minutes ago, at 01:50 UTC
Wind 5 kt from the North/Northwest, varying between West and North/Northeast
Temperature -15°C
Humidity 65%
Pressure 983 hPa
Visibility 10 km or more
Broken clouds at a height of 3000 ft

METAR: ENSB 210150Z 33005KT 280V020 9999 BKN030 M15/M20 Q0983 RMK WIND 1400FT 00000KT

Time: 03:13 (02:13 UTC)

Forecast

Forecast valid from 21 at 00 UTC to 21 at 24 UTC
Wind 9 kt from the West/Northwest
Visibility 10 km or more
Few clouds at a height of 2000 ft
Scattered clouds at a height of 3000 ft
Becoming
from 21 at 12 UTC to 21 at 14 UTC
Wind 10 kt from the Southeast

TAF: ENSB 2100/2124 30009KT 9999 FEW020 SCT030 BECMG 2112/2114 14010KT

Weather observations and forecasts of more than 4000 airports (METAR and TAF reports).

The available stations are represented by yellow and red dots on the map.

Hover mouse over dot to see the name of the station.

Then click to see weather observations and forecasts.

To change the map : click on the green buttons with a black cross to zoom in, on the green button with a dash to zoom out, or on the green arrows for adjacent maps.


METAR-TAF: